Time;durP1;ratioP1;P1;durP2;ratioP2;P2;SDS_P1;SDS_P2;PMS_P1;PMS_P2;Temp;Humidity;BMP_temperature;BMP_pressure;BME280_temperature;BME280_humidity;BME280_pressure;Samples;Min_cycle;Max_cycle;Signal;HPM_P1;HPM_P2
2021/09/24 00:03:30;;;;;;;15.02;8.63;;;;;;;6.64;100.00;95086.03;10231669;29;20114;-83
2021/09/24 00:08:32;;;;;;;12.00;7.60;;;;;;;6.69;100.00;95088.00;10238744;29;20057;-83
2021/09/24 00:13:32;;;;;;;11.38;6.88;;;;;;;6.65;100.00;95085.78;10231776;29;20027;-84
2021/09/24 00:18:33;;;;;;;9.15;6.40;;;;;;;6.43;100.00;95093.69;10231192;28;20031;-85
2021/09/24 00:23:33;;;;;;;12.68;6.13;;;;;;;6.27;100.00;95075.75;10239905;28;20106;-86
2021/09/24 00:28:36;;;;;;;8.63;6.18;;;;;;;6.27;100.00;95089.09;10243726;28;20030;-86
2021/09/24 00:33:36;;;;;;;10.45;5.63;;;;;;;6.23;100.00;95083.41;10241848;29;20031;-87
2021/09/24 00:38:38;;;;;;;9.68;5.90;;;;;;;6.26;100.00;95082.91;10242839;28;20039;-87
2021/09/24 00:43:39;;;;;;;10.93;6.45;;;;;;;6.16;100.00;95058.72;10234485;29;20031;-85
2021/09/24 00:48:39;;;;;;;11.05;7.15;;;;;;;6.15;100.00;95059.75;10229066;28;20047;-85
2021/09/24 00:53:40;;;;;;;12.35;7.13;;;;;;;6.15;100.00;95055.25;10229197;29;20023;-84
2021/09/24 00:58:41;;;;;;;11.43;6.45;;;;;;;6.14;100.00;95052.81;10230312;29;20023;-87
2021/09/24 01:03:41;;;;;;;7.32;5.63;;;;;;;6.01;100.00;95056.53;10233108;29;20614;-87
2021/09/24 01:08:42;;;;;;;8.52;5.65;;;;;;;6.11;100.00;95043.41;10234798;29;20035;-88
2021/09/24 01:13:43;;;;;;;10.40;5.35;;;;;;;6.11;100.00;95038.09;10240586;29;20027;-87
2021/09/24 01:18:43;;;;;;;9.60;6.05;;;;;;;6.01;100.00;95037.88;10236575;29;20031;-87
2021/09/24 01:23:44;;;;;;;9.40;6.07;;;;;;;5.97;100.00;95032.22;10230670;29;20142;-87
2021/09/24 01:28:45;;;;;;;7.55;5.85;;;;;;;6.06;100.00;95029.97;10247909;28;20470;-88
2021/09/24 01:33:47;;;;;;;8.93;5.55;;;;;;;6.00;100.00;95020.25;10237830;28;20046;-88
2021/09/24 01:38:48;;;;;;;9.95;6.45;;;;;;;5.99;100.00;95006.09;10240568;29;20039;-89
2021/09/24 01:43:48;;;;;;;8.20;5.47;;;;;;;5.95;100.00;95002.25;10240758;29;20031;-87
2021/09/24 01:48:49;;;;;;;6.80;5.20;;;;;;;5.86;100.00;95016.19;10241124;29;20472;-87
2021/09/24 01:53:49;;;;;;;13.40;6.43;;;;;;;5.87;100.00;95013.28;10243851;29;20027;-88
2021/09/24 01:58:50;;;;;;;12.77;6.65;;;;;;;5.80;100.00;95007.28;10252368;29;20055;-88
2021/09/24 02:03:50;;;;;;;8.40;5.65;;;;;;;5.81;100.00;95014.25;10244165;29;20031;-88
2021/09/24 02:08:51;;;;;;;6.90;5.63;;;;;;;5.77;100.00;95003.22;10249094;28;20494;-88
2021/09/24 02:13:51;;;;;;;9.35;7.13;;;;;;;5.78;100.00;95009.38;10245413;28;20039;-88
2021/09/24 02:18:52;;;;;;;8.77;6.75;;;;;;;5.65;100.00;95015.78;10238886;29;20477;-88
2021/09/24 02:23:52;;;;;;;12.65;7.00;;;;;;;5.65;100.00;95008.59;10238859;29;20361;-87
2021/09/24 02:28:53;;;;;;;11.00;6.75;;;;;;;5.59;100.00;95011.38;10243432;28;20393;-88
2021/09/24 02:33:53;;;;;;;11.50;7.53;;;;;;;5.57;100.00;95016.16;10249308;28;20023;-88
2021/09/24 02:38:54;;;;;;;11.13;7.25;;;;;;;5.52;100.00;95002.72;10255156;28;20334;-88
2021/09/24 02:43:55;;;;;;;10.60;7.15;;;;;;;5.62;100.00;94998.41;10289533;28;20037;-87
2021/09/24 02:48:55;;;;;;;12.98;7.30;;;;;;;5.60;100.00;94995.16;10276768;28;20051;-88
2021/09/24 02:53:56;;;;;;;12.98;7.25;;;;;;;5.59;100.00;94992.72;10246919;28;20058;-88
2021/09/24 02:58:57;;;;;;;10.70;6.65;;;;;;;5.63;100.00;94993.88;10235592;29;20031;-87
2021/09/24 03:03:57;;;;;;;10.60;6.93;;;;;;;5.51;100.00;94991.22;10238234;28;20469;-88
2021/09/24 03:08:58;;;;;;;9.48;6.18;;;;;;;5.62;100.00;94994.91;10233980;29;20028;-86
2021/09/24 03:13:58;;;;;;;12.00;7.68;;;;;;;5.56;100.00;94999.34;10236093;28;20030;-86
2021/09/24 03:18:59;;;;;;;13.43;9.15;;;;;;;5.59;100.00;95003.38;10236093;28;20412;-87
2021/09/24 03:23:59;;;;;;;11.80;7.07;;;;;;;5.51;100.00;94995.75;10234758;29;20050;-87
2021/09/24 03:29:01;;;;;;;12.07;7.15;;;;;;;5.57;100.00;94978.84;10233727;29;20024;-86
2021/09/24 03:34:01;;;;;;;16.20;10.57;;;;;;;5.45;100.00;94976.19;10250187;28;20043;-87
2021/09/24 03:39:05;;;;;;;13.50;7.30;;;;;;;5.34;100.00;94975.13;10233857;29;20031;-85
2021/09/24 03:44:05;;;;;;;13.90;8.23;;;;;;;5.36;100.00;94978.41;10243072;29;20039;-85
2021/09/24 03:49:06;;;;;;;15.32;8.98;;;;;;;5.35;100.00;94962.66;10249227;28;20066;-86
2021/09/24 03:54:06;;;;;;;21.23;10.18;;;;;;;5.39;100.00;94977.13;10233828;28;20038;-86
2021/09/24 03:59:07;;;;;;;14.10;9.40;;;;;;;5.45;100.00;94979.63;10238778;28;20093;-88
2021/09/24 04:04:08;;;;;;;16.50;8.80;;;;;;;5.63;100.00;94992.00;10237942;29;20051;-87
2021/09/24 04:09:09;;;;;;;13.13;9.32;;;;;;;5.65;100.00;94979.25;10241145;29;20094;-88
2021/09/24 04:14:10;;;;;;;16.48;8.70;;;;;;;5.51;100.00;94969.09;10235059;28;20039;-86
2021/09/24 04:19:10;;;;;;;15.80;9.63;;;;;;;5.47;100.00;94969.56;10234194;29;20529;-87
2021/09/24 04:24:11;;;;;;;15.15;8.77;;;;;;;5.40;100.00;94960.91;10235347;29;20071;-86
2021/09/24 04:29:11;;;;;;;17.35;8.95;;;;;;;5.42;100.00;94976.66;10230281;29;20034;-87
2021/09/24 04:34:12;;;;;;;18.70;9.43;;;;;;;5.53;100.00;94975.00;10231621;29;20454;-87
2021/09/24 04:39:13;;;;;;;14.52;8.93;;;;;;;5.59;100.00;94976.72;10229627;28;20032;-86
2021/09/24 04:44:13;;;;;;;16.30;8.05;;;;;;;5.74;100.00;94968.22;10231608;28;20019;-86
2021/09/24 04:49:14;;;;;;;14.02;8.30;;;;;;;5.85;100.00;94975.38;10231480;28;20482;-88
2021/09/24 04:54:14;;;;;;;20.10;9.02;;;;;;;5.93;100.00;94968.84;10233463;28;20023;-88
2021/09/24 04:59:15;;;;;;;15.93;8.82;;;;;;;5.98;100.00;94982.31;10231015;29;20067;-88
2021/09/24 05:04:16;;;;;;;16.05;8.93;;;;;;;6.12;100.00;94985.50;10237367;28;20023;-88
2021/09/24 05:09:17;;;;;;;16.95;10.45;;;;;;;6.07;100.00;94980.06;10240860;29;20039;-87
2021/09/24 05:14:17;;;;;;;15.27;9.82;;;;;;;6.39;100.00;94985.75;10243958;29;20028;-87
2021/09/24 05:19:18;;;;;;;16.70;9.30;;;;;;;6.41;100.00;94988.97;10253984;28;20041;-86
2021/09/24 05:24:19;;;;;;;19.60;9.32;;;;;;;6.71;100.00;94995.88;10247670;29;20031;-87
2021/09/24 05:29:22;;;;;;;20.90;9.48;;;;;;;6.85;100.00;94988.34;10260017;29;20027;-89
2021/09/24 05:34:23;;;;;;;20.63;10.45;;;;;;;6.76;100.00;94982.59;10259376;29;20034;-87
2021/09/24 05:39:23;;;;;;;16.17;8.25;;;;;;;6.80;100.00;94969.59;10247776;29;20023;-88
2021/09/24 05:44:24;;;;;;;15.18;9.63;;;;;;;6.98;100.00;94966.66;10243016;29;20034;-88
2021/09/24 05:49:29;;;;;;;17.05;9.70;;;;;;;7.32;100.00;94963.13;10241565;28;20142;-87
2021/09/24 05:54:30;;;;;;;20.05;10.38;;;;;;;7.82;100.00;94953.31;10262930;29;20031;-90
2021/09/24 05:59:30;;;;;;;15.70;9.27;;;;;;;8.35;100.00;94954.38;10290824;28;20027;-91
2021/09/24 06:04:31;;;;;;;14.82;7.97;;;;;;;8.68;100.00;94943.75;10259021;28;20023;-86
2021/09/24 06:09:31;;;;;;;17.60;9.05;;;;;;;9.09;100.00;94962.00;10236168;29;20035;-86
2021/09/24 06:14:32;;;;;;;15.70;8.50;;;;;;;9.44;100.00;94974.00;10237659;28;20106;-86
2021/09/24 06:19:32;;;;;;;13.05;8.02;;;;;;;9.80;100.00;94963.44;10238519;29;20023;-87
2021/09/24 06:24:38;;;;;;;17.83;8.82;;;;;;;10.12;100.00;94974.03;10252634;28;20064;-91
2021/09/24 06:29:39;;;;;;;22.77;10.55;;;;;;;10.51;100.00;94978.19;10289160;23;20560;-73
2021/09/24 06:34:40;;;;;;;31.63;9.70;;;;;;;11.08;100.00;94969.06;10243254;28;20106;-70
2021/09/24 06:39:41;;;;;;;18.05;9.93;;;;;;;11.35;100.00;94978.72;10243267;29;20295;-66
2021/09/24 06:44:42;;;;;;;21.67;10.13;;;;;;;11.31;100.00;94966.09;10242681;28;20039;-69
2021/09/24 06:49:43;;;;;;;17.70;11.18;;;;;;;11.73;99.61;94965.69;10241697;29;20023;-70
2021/09/24 06:54:43;;;;;;;17.38;9.20;;;;;;;12.97;81.73;94956.94;10241691;29;20031;-70
2021/09/24 06:59:44;;;;;;;14.45;8.02;;;;;;;13.15;79.36;94953.53;10241690;28;20500;-69
2021/09/24 07:04:44;;;;;;;16.55;10.07;;;;;;;14.04;72.97;94935.34;10225612;28;20629;-71
2021/09/24 07:09:44;;;;;;;17.50;8.50;;;;;;;16.28;61.68;94929.41;10242343;28;20413;-71
2021/09/24 07:14:45;;;;;;;15.18;8.45;;;;;;;16.13;54.29;94908.84;10243282;28;20286;-70
2021/09/24 07:19:45;;;;;;;16.10;9.57;;;;;;;16.33;55.05;94927.38;10241146;29;20035;-69
2021/09/24 07:24:48;;;;;;;13.13;7.95;;;;;;;16.74;55.08;94914.81;10185133;29;20162;-70
2021/09/24 07:29:49;;;;;;;15.15;7.43;;;;;;;16.79;53.54;94933.69;10217444;28;20090;-70
2021/09/24 07:34:50;;;;;;;11.38;6.85;;;;;;;18.14;47.62;94931.88;10236110;29;20510;-66
2021/09/24 07:39:51;;;;;;;14.90;8.63;;;;;;;17.45;49.52;94949.47;10241589;28;20035;-66
2021/09/24 07:44:51;;;;;;;19.73;8.73;;;;;;;17.53;52.30;94965.03;10241205;28;20142;-69
2021/09/24 07:49:51;;;;;;;18.07;7.90;;;;;;;18.61;48.67;94956.63;10240384;29;20019;-70
2021/09/24 07:54:52;;;;;;;19.03;6.83;;;;;;;20.85;42.53;94957.72;10240143;28;21184;-69
2021/09/24 07:59:52;;;;;;;11.85;7.55;;;;;;;22.27;39.73;94958.66;10241331;28;20290;-71
2021/09/24 08:04:53;;;;;;;12.90;6.27;;;;;;;22.93;37.62;94952.09;10240455;28;20038;-68
2021/09/24 08:09:53;;;;;;;13.97;6.13;;;;;;;23.06;38.01;94941.09;10240209;28;20377;-70
2021/09/24 08:14:53;;;;;;;17.23;6.67;;;;;;;21.93;38.41;94931.41;10255601;28;20279;-68
2021/09/24 08:19:54;;;;;;;19.00;6.72;;;;;;;23.70;36.33;94915.44;10240236;28;20035;-70
2021/09/24 08:24:54;;;;;;;16.92;5.75;;;;;;;23.44;36.30;94895.94;10240603;28;20036;-71
2021/09/24 08:29:55;;;;;;;12.53;6.83;;;;;;;21.72;40.63;94898.66;10239080;28;20113;-69
2021/09/24 08:34:55;;;;;;;12.70;6.37;;;;;;;20.55;40.16;94903.09;10256200;28;20027;-69
2021/09/24 08:39:55;;;;;;;14.10;6.50;;;;;;;20.04;43.73;94910.50;10243855;28;20381;-69
2021/09/24 08:44:56;;;;;;;16.93;7.63;;;;;;;19.54;46.08;94909.25;10249033;28;20290;-66
2021/09/24 08:49:56;;;;;;;15.38;7.35;;;;;;;19.47;45.32;94904.31;10263211;28;20301;-70
2021/09/24 08:54:57;;;;;;;19.42;7.57;;;;;;;19.09;45.58;94916.72;10246655;28;20058;-69
2021/09/24 08:59:57;;;;;;;21.87;6.80;;;;;;;19.18;45.44;94905.03;10247346;28;20059;-69
2021/09/24 09:04:58;;;;;;;15.98;7.47;;;;;;;19.42;46.02;94899.03;10262577;28;20039;-65
2021/09/24 09:09:58;;;;;;;12.60;7.53;;;;;;;19.47;45.38;94882.50;10262368;28;20533;-68
2021/09/24 09:15:12;;;;;;;12.80;6.50;;;;;;;19.49;45.58;94882.16;10246389;28;20051;-65
2021/09/24 09:20:18;;;;;;;9.77;6.10;;;;;;;19.49;44.27;94884.91;10246407;29;20035;-65
2021/09/24 09:25:33;;;;;;;22.10;9.57;;;;;;;20.71;44.37;94883.41;10229193;28;20063;-70
2021/09/24 09:30:34;;;;;;;13.77;6.00;;;;;;;22.73;38.46;94877.16;10222194;29;20051;-72
2021/09/24 09:35:47;;;;;;;14.68;5.50;;;;;;;24.61;36.10;94857.94;10236534;28;20039;-67
2021/09/24 09:41:08;;;;;;;15.30;4.63;;;;;;;27.34;31.42;94841.41;10221626;29;20031;-71
2021/09/24 09:46:12;;;;;;;15.05;5.50;;;;;;;27.94;30.63;94831.31;10241822;28;20027;-65
2021/09/24 09:51:20;;;;;;;20.63;6.45;;;;;;;27.90;30.95;94836.03;10223997;28;20078;-71
2021/09/24 09:56:21;;;;;;;20.15;5.25;;;;;;;27.74;29.83;94822.47;10224278;28;20136;-68
2021/09/24 10:01:22;;;;;;;10.50;4.72;;;;;;;27.25;29.49;94825.16;10220843;29;20134;-66
2021/09/24 10:06:32;;;;;;;10.35;4.40;;;;;;;28.69;28.13;94825.53;10224070;29;20086;-67
2021/09/24 10:11:35;;;;;;;8.88;3.70;;;;;;;29.13;26.76;94816.16;10222664;28;20023;-71
2021/09/24 10:16:39;;;;;;;5.53;3.40;;;;;;;27.35;29.26;94817.34;10228064;29;20035;-68
2021/09/24 10:21:40;;;;;;;10.02;4.47;;;;;;;28.78;27.55;94800.25;10225310;29;20118;-66
2021/09/24 10:26:44;;;;;;;11.75;3.22;;;;;;;30.68;25.68;94794.00;10225076;29;20039;-66
2021/09/24 10:31:50;;;;;;;11.70;3.33;;;;;;;32.96;23.95;94792.22;10243246;28;20055;-66
2021/09/24 10:36:55;;;;;;;8.35;1.63;;;;;;;34.88;20.63;94797.09;10243975;28;20031;-71
2021/09/24 10:42:21;;;;;;;3.13;1.75;;;;;;;35.32;18.69;94785.03;10259280;28;20127;-71
2021/09/24 10:47:50;;;;;;;2.37;1.20;;;;;;;36.48;18.34;94767.03;10259234;28;20085;-67
2021/09/24 10:53:10;;;;;;;5.50;1.85;;;;;;;36.19;18.44;94756.56;10243718;28;20061;-70
2021/09/24 10:58:26;;;;;;;5.78;1.73;;;;;;;36.55;17.82;94754.84;10243919;28;20101;-67
2021/09/24 11:03:29;;;;;;;4.88;1.15;;;;;;;32.99;19.11;94744.03;10257788;28;20082;-71
2021/09/24 11:08:32;;;;;;;4.45;1.35;;;;;;;32.42;20.03;94732.44;10248820;28;20030;-70
2021/09/24 11:13:34;;;;;;;6.68;1.40;;;;;;;33.35;19.44;94726.84;10258642;28;20501;-66
2021/09/24 11:19:00;;;;;;;6.65;1.80;;;;;;;33.25;19.94;94727.81;10257918;28;20035;-67
2021/09/24 11:24:03;;;;;;;199.88;11.30;;;;;;;31.00;21.97;94709.78;10257143;28;20039;-71
2021/09/24 11:29:06;;;;;;;10.98;2.05;;;;;;;28.10;25.14;94717.78;10241343;28;20425;-66
2021/09/24 11:34:06;;;;;;;3.47;2.17;;;;;;;25.66;28.31;94701.13;10257507;28;20413;-75
2021/09/24 11:39:06;;;;;;;8.27;2.97;;;;;;;24.74;30.33;94696.44;10241977;28;20028;-70
2021/09/24 11:44:07;;;;;;;15.93;2.97;;;;;;;23.80;31.78;94688.28;10256631;28;20286;-75
2021/09/24 11:49:07;;;;;;;3.55;2.38;;;;;;;23.27;34.12;94703.16;10240246;28;21045;-69
2021/09/24 11:54:08;;;;;;;4.17;3.00;;;;;;;22.95;32.86;94708.63;10241257;28;20020;-67
2021/09/24 11:59:10;;;;;;;5.30;2.57;;;;;;;22.63;35.26;94713.28;10224927;28;20024;-68
2021/09/24 12:04:14;;;;;;;4.68;2.95;;;;;;;22.71;35.76;94706.84;10255877;28;20072;-74
2021/09/24 12:09:17;;;;;;;6.68;2.55;;;;;;;22.62;35.35;94692.50;10255963;28;20113;-73
2021/09/24 12:14:19;;;;;;;6.07;2.22;;;;;;;22.04;33.79;94668.22;10255439;28;20085;-68
2021/09/24 12:19:25;;;;;;;4.00;3.10;;;;;;;21.67;33.97;94667.22;10247864;28;20035;-68
2021/09/24 12:24:39;;;;;;;5.05;2.47;;;;;;;21.49;33.91;94658.44;10239484;28;20027;-70
2021/09/24 12:29:42;;;;;;;3.50;2.35;;;;;;;21.45;33.41;94668.47;10200507;29;20047;-67
2021/09/24 12:34:47;;;;;;;3.25;2.17;;;;;;;21.57;34.72;94656.72;10220476;28;20479;-70
2021/09/24 12:39:57;;;;;;;5.38;2.22;;;;;;;21.68;35.19;94652.41;10216234;29;20091;-68
2021/09/24 12:44:58;;;;;;;3.03;1.60;;;;;;;22.01;34.85;94648.63;10215179;28;20038;-66
2021/09/24 12:50:02;;;;;;;3.30;2.17;;;;;;;21.78;32.71;94642.09;10183514;29;20095;-66
2021/09/24 12:55:05;;;;;;;7.25;2.13;;;;;;;21.67;35.58;94637.13;10183513;29;20047;-70
2021/09/24 13:00:11;;;;;;;3.33;2.33;;;;;;;21.86;34.74;94646.63;10200402;29;20039;-69
2021/09/24 13:05:13;;;;;;;3.20;2.60;;;;;;;21.87;34.74;94645.50;10222981;29;20398;-67
2021/09/24 13:10:16;;;;;;;4.78;2.03;;;;;;;21.68;34.93;94648.84;10238548;29;20039;-74
2021/09/24 13:15:18;;;;;;;3.00;2.33;;;;;;;21.55;34.67;94636.38;10238237;28;20090;-68
2021/09/24 13:20:19;;;;;;;2.83;1.88;;;;;;;21.50;35.30;94637.34;10243305;28;20038;-66
2021/09/24 13:25:19;;;;;;;6.10;2.17;;;;;;;21.72;34.39;94643.50;10240414;28;20035;-66
2021/09/24 13:30:20;;;;;;;4.97;1.90;;;;;;;22.07;34.76;94640.16;10245573;28;20066;-71
2021/09/24 13:35:20;;;;;;;2.88;1.95;;;;;;;22.34;31.45;94642.13;10262179;28;20863;-72
2021/09/24 13:40:21;;;;;;;9.15;1.80;;;;;;;22.31;31.50;94640.06;10245889;28;20409;-69
2021/09/24 13:45:21;;;;;;;4.23;2.90;;;;;;;21.81;31.99;94649.59;10261116;28;20117;-66
2021/09/24 13:50:22;;;;;;;3.33;2.07;;;;;;;21.90;33.65;94642.06;10261140;28;20839;-66
2021/09/24 13:55:23;;;;;;;2.65;1.75;;;;;;;21.65;30.90;94641.34;10245217;29;20287;-71
2021/09/24 14:00:23;;;;;;;3.03;2.00;;;;;;;21.34;33.16;94631.81;10246143;28;20023;-70
2021/09/24 14:05:24;;;;;;;3.03;1.97;;;;;;;21.48;33.54;94639.66;10261057;28;20413;-69
2021/09/24 14:10:24;;;;;;;4.05;1.80;;;;;;;21.58;33.83;94641.91;10244624;29;20298;-74
2021/09/24 14:15:26;;;;;;;3.80;2.17;;;;;;;21.32;34.52;94653.22;10259832;28;20423;-70
2021/09/24 14:20:27;;;;;;;3.47;2.47;;;;;;;21.40;31.87;94646.03;10243604;28;20077;-66
2021/09/24 14:25:27;;;;;;;5.63;2.17;;;;;;;21.38;33.39;94651.03;10260239;28;20127;-66
2021/09/24 14:30:27;;;;;;;3.10;2.13;;;;;;;21.38;33.17;94651.84;10242038;28;20082;-65
2021/09/24 14:35:28;;;;;;;11.30;4.32;;;;;;;21.14;34.59;94656.22;10234885;28;20118;-66
2021/09/24 14:40:29;;;;;;;3.92;2.47;;;;;;;21.06;34.71;94656.34;10232609;29;20039;-70
2021/09/24 14:45:29;;;;;;;5.45;2.35;;;;;;;20.99;34.20;94660.41;10243835;28;20428;-64
2021/09/24 14:50:30;;;;;;;6.35;2.35;;;;;;;20.92;33.17;94654.72;10258306;28;20046;-70
2021/09/24 14:55:30;;;;;;;6.05;2.33;;;;;;;20.89;33.45;94658.16;10244014;28;20042;-67
2021/09/24 15:00:31;;;;;;;6.65;3.67;;;;;;;20.92;36.15;94657.47;10242305;28;20047;-73
2021/09/24 15:05:31;;;;;;;13.60;4.20;;;;;;;20.81;34.90;94661.78;10246748;28;20053;-69
2021/09/24 15:10:32;;;;;;;5.67;2.20;;;;;;;20.73;35.52;94658.00;10242672;28;20166;-70
2021/09/24 15:15:32;;;;;;;5.95;3.13;;;;;;;20.66;36.91;94663.19;10241618;29;20305;-76
2021/09/24 15:20:33;;;;;;;5.30;3.15;;;;;;;20.56;36.46;94658.97;10257617;28;20027;-66
2021/09/24 15:25:33;;;;;;;10.03;3.10;;;;;;;20.41;36.58;94659.63;10256785;28;20027;-70
2021/09/24 15:30:34;;;;;;;4.17;2.50;;;;;;;20.27;35.92;94663.44;10256978;28;20303;-68
2021/09/24 15:35:35;;;;;;;4.18;2.20;;;;;;;20.18;36.29;94670.13;10256886;28;20034;-71
2021/09/24 15:40:36;;;;;;;5.22;2.75;;;;;;;20.13;36.62;94669.22;10256914;28;20121;-69
2021/09/24 15:45:37;;;;;;;5.22;2.55;;;;;;;20.06;37.38;94673.63;10239971;28;20031;-73
2021/09/24 15:50:38;;;;;;;6.00;3.45;;;;;;;19.86;37.58;94683.44;10239914;28;20405;-69
2021/09/24 15:55:38;;;;;;;4.32;2.90;;;;;;;19.70;37.59;94677.75;10240113;28;20058;-70
2021/09/24 16:00:38;;;;;;;5.90;2.63;;;;;;;19.61;37.73;94680.53;10240406;28;20077;-67
2021/09/24 16:05:39;;;;;;;4.25;2.63;;;;;;;19.42;37.38;94676.34;10255765;28;20023;-72
2021/09/24 16:10:39;;;;;;;7.00;2.80;;;;;;;19.25;38.29;94682.69;10255688;28;20090;-68
2021/09/24 16:15:40;;;;;;;6.35;2.63;;;;;;;19.09;38.88;94682.47;10256191;28;20027;-68
2021/09/24 16:20:41;;;;;;;4.63;3.08;;;;;;;19.02;38.80;94700.44;10239058;28;20019;-69
2021/09/24 16:25:41;;;;;;;5.35;2.88;;;;;;;18.90;39.21;94701.94;10239550;28;20149;-66
2021/09/24 16:30:42;;;;;;;10.10;3.13;;;;;;;18.78;38.88;94704.50;10254884;28;20054;-68
2021/09/24 16:35:42;;;;;;;15.65;3.53;;;;;;;18.65;39.68;94702.81;10255367;28;20457;-72
2021/09/24 16:40:43;;;;;;;5.82;3.10;;;;;;;18.53;39.91;94703.47;10252369;28;20078;-73
2021/09/24 16:45:45;;;;;;;10.05;3.35;;;;;;;18.41;39.08;94712.31;10238892;29;20031;-72
2021/09/24 16:50:45;;;;;;;8.82;3.30;;;;;;;18.39;39.72;94715.38;10240738;28;20039;-70
2021/09/24 16:55:45;;;;;;;7.47;3.10;;;;;;;18.26;39.82;94725.28;10239205;29;20453;-70
2021/09/24 17:00:46;;;;;;;9.27;3.90;;;;;;;18.19;39.70;94730.41;10241939;28;20404;-73
2021/09/24 17:05:47;;;;;;;3.63;2.28;;;;;;;18.05;40.21;94740.69;10248198;28;20073;-72
2021/09/24 17:10:47;;;;;;;5.68;2.60;;;;;;;17.99;39.32;94741.97;10237013;28;20437;-67
2021/09/24 17:15:48;;;;;;;7.60;3.42;;;;;;;17.89;40.08;94752.00;10229728;29;20027;-66
2021/09/24 17:20:48;;;;;;;3.78;2.75;;;;;;;17.72;41.11;94754.69;10226227;29;20023;-66
2021/09/24 17:25:51;;;;;;;7.65;3.00;;;;;;;17.66;40.45;94764.91;10226618;29;20027;-67
2021/09/24 17:30:51;;;;;;;4.00;2.35;;;;;;;17.63;39.74;94765.56;10232977;28;20146;-71
2021/09/24 17:35:52;;;;;;;7.03;3.33;;;;;;;17.65;39.93;94767.97;10226573;29;20034;-69
2021/09/24 17:40:54;;;;;;;5.63;3.20;;;;;;;17.51;40.03;94770.81;10224626;29;20023;-70
2021/09/24 17:45:54;;;;;;;11.77;3.42;;;;;;;17.51;40.09;94773.53;10224825;28;20019;-67
2021/09/24 17:50:55;;;;;;;8.73;4.38;;;;;;;17.41;40.94;94782.75;10225773;28;20023;-72
2021/09/24 17:55:55;;;;;;;5.30;3.38;;;;;;;17.43;39.82;94783.28;10253979;23;20051;-73
2021/09/24 18:00:56;;;;;;;8.02;2.92;;;;;;;17.35;40.14;94795.69;10261355;28;20033;-68
2021/09/24 18:05:57;;;;;;;6.15;2.83;;;;;;;17.34;40.90;94785.16;10268454;28;20034;-74
2021/09/24 18:10:58;;;;;;;5.60;3.30;;;;;;;17.30;41.17;94786.88;10272326;28;20027;-71
2021/09/24 18:15:58;;;;;;;7.35;2.83;;;;;;;17.17;41.50;94792.13;10255172;28;20034;-70
2021/09/24 18:20:59;;;;;;;6.20;2.58;;;;;;;17.12;41.58;94805.03;10261168;28;20053;-68
2021/09/24 18:26:00;;;;;;;7.28;3.30;;;;;;;16.97;42.93;94808.94;10284429;28;20027;-70
2021/09/24 18:31:01;;;;;;;3.72;2.53;;;;;;;16.83;43.18;94817.13;10286957;28;20057;-69
2021/09/24 18:36:02;;;;;;;7.20;3.10;;;;;;;16.78;42.15;94811.88;10286485;28;20046;-69
2021/09/24 18:41:02;;;;;;;8.50;3.00;;;;;;;16.74;43.81;94817.09;10286754;28;20030;-68
2021/09/24 18:46:03;;;;;;;5.70;3.22;;;;;;;16.69;42.87;94817.25;10277844;28;20469;-67
2021/09/24 18:51:04;;;;;;;9.40;3.55;;;;;;;16.68;43.27;94818.34;10231052;29;20031;-67
2021/09/24 18:56:04;;;;;;;9.68;3.42;;;;;;;16.61;43.71;94821.50;10245943;28;20055;-67
2021/09/24 19:01:05;;;;;;;16.70;5.43;;;;;;;16.50;45.33;94820.94;10246453;29;20114;-71
2021/09/24 19:06:06;;;;;;;8.07;3.63;;;;;;;16.36;47.39;94828.34;10246262;29;20031;-74
2021/09/24 19:11:06;;;;;;;7.05;3.33;;;;;;;16.33;47.15;94839.81;10245373;28;20035;-68
2021/09/24 19:16:08;;;;;;;8.27;3.67;;;;;;;16.20;46.24;94831.41;10243577;29;20035;-67
2021/09/24 19:21:09;;;;;;;6.28;3.60;;;;;;;16.16;49.83;94835.03;10228718;29;20034;-66
2021/09/24 19:26:10;;;;;;;12.20;4.03;;;;;;;16.03;49.52;94842.09;10244906;28;20533;-67
2021/09/24 19:31:11;;;;;;;11.63;4.43;;;;;;;15.81;56.56;94846.34;10245349;29;20031;-67
2021/09/24 19:36:12;;;;;;;9.52;5.35;;;;;;;15.76;57.44;94848.34;10245571;28;20037;-68
2021/09/24 19:41:12;;;;;;;10.07;3.85;;;;;;;15.71;56.23;94847.34;10243093;29;20039;-68
2021/09/24 19:46:13;;;;;;;5.80;3.42;;;;;;;15.66;55.19;94844.72;10244758;29;20038;-68
2021/09/24 19:51:13;;;;;;;6.03;3.60;;;;;;;15.55;56.87;94854.97;10244155;28;20082;-68
2021/09/24 19:56:13;;;;;;;8.93;3.97;;;;;;;15.63;52.71;94848.06;10241476;29;20383;-69
2021/09/24 20:01:14;;;;;;;9.35;3.70;;;;;;;15.65;53.39;94850.47;10241547;29;20271;-70
2021/09/24 20:06:14;;;;;;;6.10;3.92;;;;;;;15.63;54.78;94850.75;10243945;29;20122;-71
2021/09/24 20:11:15;;;;;;;9.23;3.83;;;;;;;15.63;56.93;94864.31;10244157;29;20039;-70
2021/09/24 20:16:17;;;;;;;7.53;4.30;;;;;;;15.64;56.66;94870.53;10243570;29;20294;-70
2021/09/24 20:21:18;;;;;;;13.23;4.80;;;;;;;15.52;61.71;94862.91;10244761;29;20035;-71
2021/09/24 20:26:18;;;;;;;10.18;4.78;;;;;;;15.40;61.61;94870.72;10243453;28;20031;-71
2021/09/24 20:31:19;;;;;;;9.98;3.65;;;;;;;15.26;66.01;94871.50;10226947;29;20414;-69
2021/09/24 20:36:19;;;;;;;13.07;4.67;;;;;;;15.10;64.60;94875.59;10240244;29;20496;-69
2021/09/24 20:41:20;;;;;;;9.77;4.10;;;;;;;14.95;67.81;94874.75;10242047;28;20302;-70
2021/09/24 20:46:20;;;;;;;9.23;3.88;;;;;;;14.76;66.33;94882.91;10243275;29;20031;-70
2021/09/24 20:51:21;;;;;;;7.22;4.32;;;;;;;14.53;62.69;94887.34;10244109;28;20043;-69
2021/09/24 20:56:21;;;;;;;10.47;4.27;;;;;;;14.47;72.43;94897.44;10242746;29;20055;-70
2021/09/24 21:01:21;;;;;;;6.97;4.07;;;;;;;14.32;67.46;94900.34;10242920;29;20357;-69
2021/09/24 21:06:22;;;;;;;8.80;4.30;;;;;;;14.17;71.68;94894.06;10243084;29;20067;-70
2021/09/24 21:11:22;;;;;;;9.93;4.38;;;;;;;14.00;73.57;94905.38;10226807;29;20054;-73
2021/09/24 21:16:24;;;;;;;10.38;4.30;;;;;;;13.98;74.61;94906.75;10242663;29;20038;-69
2021/09/24 21:21:24;;;;;;;10.40;4.55;;;;;;;13.95;74.87;94913.56;10243092;29;20412;-70
2021/09/24 21:26:25;;;;;;;7.38;4.55;;;;;;;14.10;73.51;94917.16;10243942;28;20031;-69
2021/09/24 21:31:25;;;;;;;10.93;4.88;;;;;;;13.99;79.94;94919.16;10244232;28;20511;-71
2021/09/24 21:36:26;;;;;;;8.18;3.88;;;;;;;13.96;76.08;94927.88;10243753;28;20505;-71
2021/09/24 21:41:26;;;;;;;8.15;4.45;;;;;;;13.95;78.66;94929.78;10242446;29;20058;-72
2021/09/24 21:46:27;;;;;;;8.60;4.80;;;;;;;13.87;82.21;94943.09;10228305;28;20468;-75
2021/09/24 21:51:27;;;;;;;10.15;5.03;;;;;;;13.84;84.30;94937.19;10250136;28;20041;-76
2021/09/24 21:56:28;;;;;;;7.07;4.10;;;;;;;13.78;88.20;94946.44;10248911;29;20055;-69
2021/09/24 22:01:29;;;;;;;7.72;4.20;;;;;;;13.64;89.70;94953.63;10249966;28;20078;-73
2021/09/24 22:06:29;;;;;;;7.13;4.50;;;;;;;13.39;92.72;94955.50;10248383;29;20102;-72
2021/09/24 22:11:30;;;;;;;7.40;4.38;;;;;;;13.28;94.46;94946.69;10248717;28;20031;-69
2021/09/24 22:16:30;;;;;;;6.95;4.38;;;;;;;13.25;94.95;94965.31;10248409;28;20034;-74
2021/09/24 22:21:31;;;;;;;12.43;4.97;;;;;;;12.98;95.23;94947.75;10248148;28;20405;-74
2021/09/24 22:26:31;;;;;;;13.85;5.20;;;;;;;13.01;94.19;94960.69;10248033;29;20023;-70
2021/09/24 22:31:32;;;;;;;9.47;4.13;;;;;;;13.07;89.72;94956.84;10247823;29;20031;-71
2021/09/24 22:36:34;;;;;;;8.48;3.42;;;;;;;13.01;95.00;94957.19;10247715;29;20286;-72
2021/09/24 22:41:35;;;;;;;7.68;4.22;;;;;;;12.96;91.74;94953.44;10247606;29;20030;-72
2021/09/24 22:46:36;;;;;;;7.28;3.70;;;;;;;13.01;87.24;94955.28;10247097;29;20030;-76
2021/09/24 22:51:36;;;;;;;8.80;3.83;;;;;;;13.10;87.22;94955.47;10246662;28;20023;-69
2021/09/24 22:56:37;;;;;;;7.22;4.05;;;;;;;13.23;80.63;94952.13;10247474;28;20047;-70
2021/09/24 23:01:38;;;;;;;8.45;3.30;;;;;;;13.23;83.39;94952.13;10230703;28;20039;-73
2021/09/24 23:06:38;;;;;;;5.43;2.95;;;;;;;13.32;79.48;94952.31;10247699;28;20027;-69
2021/09/24 23:11:40;;;;;;;6.68;3.30;;;;;;;13.31;93.53;94953.38;10246528;28;20031;-72
2021/09/24 23:16:41;;;;;;;7.45;3.40;;;;;;;13.19;82.82;94953.78;10246165;28;20117;-69